sensor_id;sensor_type;location;lat;lon;timestamp;pressure;altitude;pressure_sealevel;temperature;humidity
7660;BME280;3872;47.902;8.162;2023-12-20T00:01:35;91917.66;;;6.85;100.00
7660;BME280;3872;47.902;8.162;2023-12-20T00:04:02;91922.38;;;6.83;100.00
7660;BME280;3872;47.902;8.162;2023-12-20T00:06:29;91920.34;;;6.70;100.00
7660;BME280;3872;47.902;8.162;2023-12-20T00:08:55;91916.50;;;6.47;100.00
7660;BME280;3872;47.902;8.162;2023-12-20T00:11:24;91923.50;;;6.62;100.00
7660;BME280;3872;47.902;8.162;2023-12-20T00:13:51;91901.69;;;6.22;100.00
7660;BME280;3872;47.902;8.162;2023-12-20T00:16:18;91897.28;;;6.18;100.00
7660;BME280;3872;47.902;8.162;2023-12-20T00:18:44;91911.09;;;6.18;100.00
7660;BME280;3872;47.902;8.162;2023-12-20T00:21:11;91909.53;;;6.27;100.00
7660;BME280;3872;47.902;8.162;2023-12-20T00:23:38;91914.19;;;6.46;100.00
7660;BME280;3872;47.902;8.162;2023-12-20T00:26:04;91918.47;;;5.81;100.00
7660;BME280;3872;47.902;8.162;2023-12-20T00:28:32;91919.31;;;6.66;100.00
7660;BME280;3872;47.902;8.162;2023-12-20T00:30:59;91907.75;;;5.98;100.00
7660;BME280;3872;47.902;8.162;2023-12-20T00:33:25;91901.53;;;6.63;100.00
7660;BME280;3872;47.902;8.162;2023-12-20T00:35:52;91911.19;;;5.88;100.00
7660;BME280;3872;47.902;8.162;2023-12-20T00:38:18;91894.63;;;6.87;100.00
7660;BME280;3872;47.902;8.162;2023-12-20T00:40:45;91896.44;;;6.92;100.00
7660;BME280;3872;47.902;8.162;2023-12-20T00:43:12;91892.72;;;6.49;100.00
7660;BME280;3872;47.902;8.162;2023-12-20T00:45:40;91902.66;;;7.40;100.00
7660;BME280;3872;47.902;8.162;2023-12-20T00:48:07;91902.88;;;6.55;100.00
7660;BME280;3872;47.902;8.162;2023-12-20T00:50:33;91916.97;;;6.64;100.00
7660;BME280;3872;47.902;8.162;2023-12-20T00:53:00;91906.97;;;6.77;100.00
7660;BME280;3872;47.902;8.162;2023-12-20T00:55:27;91905.50;;;6.60;100.00
7660;BME280;3872;47.902;8.162;2023-12-20T00:57:53;91891.97;;;6.92;100.00
7660;BME280;3872;47.902;8.162;2023-12-20T01:00:20;91893.66;;;5.99;100.00
7660;BME280;3872;47.902;8.162;2023-12-20T01:02:48;91887.69;;;6.62;100.00
7660;BME280;3872;47.902;8.162;2023-12-20T01:05:17;91873.22;;;6.80;100.00
7660;BME280;3872;47.902;8.162;2023-12-20T01:07:44;91878.59;;;6.50;100.00
7660;BME280;3872;47.902;8.162;2023-12-20T01:10:11;91875.22;;;6.93;100.00
7660;BME280;3872;47.902;8.162;2023-12-20T01:12:37;91873.03;;;6.61;100.00
7660;BME280;3872;47.902;8.162;2023-12-20T01:15:05;91869.56;;;6.81;100.00
7660;BME280;3872;47.902;8.162;2023-12-20T01:17:32;91873.88;;;7.01;100.00
7660;BME280;3872;47.902;8.162;2023-12-20T01:19:59;91883.56;;;6.51;100.00
7660;BME280;3872;47.902;8.162;2023-12-20T01:22:26;91864.00;;;6.44;100.00
7660;BME280;3872;47.902;8.162;2023-12-20T01:24:52;91868.78;;;6.76;100.00
7660;BME280;3872;47.902;8.162;2023-12-20T01:27:19;91868.13;;;7.38;100.00
7660;BME280;3872;47.902;8.162;2023-12-20T01:29:46;91868.78;;;6.81;100.00
7660;BME280;3872;47.902;8.162;2023-12-20T01:32:12;91879.94;;;6.91;100.00
7660;BME280;3872;47.902;8.162;2023-12-20T01:34:39;91874.28;;;7.18;100.00
7660;BME280;3872;47.902;8.162;2023-12-20T01:37:07;91875.22;;;7.32;100.00
7660;BME280;3872;47.902;8.162;2023-12-20T01:39:34;91876.34;;;7.21;100.00
7660;BME280;3872;47.902;8.162;2023-12-20T01:42:00;91894.03;;;6.46;100.00
7660;BME280;3872;47.902;8.162;2023-12-20T01:44:27;91875.88;;;6.70;100.00
7660;BME280;3872;47.902;8.162;2023-12-20T01:46:54;91895.50;;;7.17;100.00
7660;BME280;3872;47.902;8.162;2023-12-20T01:49:21;91899.47;;;7.09;100.00
7660;BME280;3872;47.902;8.162;2023-12-20T01:51:48;91908.13;;;7.04;100.00
7660;BME280;3872;47.902;8.162;2023-12-20T01:54:17;91894.69;;;7.21;100.00
7660;BME280;3872;47.902;8.162;2023-12-20T01:56:45;91901.38;;;7.37;100.00
7660;BME280;3872;47.902;8.162;2023-12-20T01:59:12;91896.75;;;7.24;100.00
7660;BME280;3872;47.902;8.162;2023-12-20T02:01:39;91907.38;;;6.45;100.00
7660;BME280;3872;47.902;8.162;2023-12-20T02:04:05;91903.56;;;6.76;100.00
7660;BME280;3872;47.902;8.162;2023-12-20T02:06:33;91906.19;;;6.76;100.00
7660;BME280;3872;47.902;8.162;2023-12-20T02:09:00;91906.88;;;6.92;100.00
7660;BME280;3872;47.902;8.162;2023-12-20T02:11:28;91906.72;;;7.22;100.00
7660;BME280;3872;47.902;8.162;2023-12-20T02:13:55;91911.19;;;6.73;100.00
7660;BME280;3872;47.902;8.162;2023-12-20T02:16:22;91912.19;;;6.82;100.00
7660;BME280;3872;47.902;8.162;2023-12-20T02:18:48;91912.00;;;7.12;100.00
7660;BME280;3872;47.902;8.162;2023-12-20T02:21:15;91905.41;;;5.76;100.00
7660;BME280;3872;47.902;8.162;2023-12-20T02:23:43;91910.09;;;6.79;100.00
7660;BME280;3872;47.902;8.162;2023-12-20T02:26:10;91888.59;;;6.38;100.00
7660;BME280;3872;47.902;8.162;2023-12-20T02:28:39;91883.00;;;7.08;100.00
7660;BME280;3872;47.902;8.162;2023-12-20T02:31:05;91881.72;;;6.52;100.00
7660;BME280;3872;47.902;8.162;2023-12-20T02:33:32;91878.03;;;6.58;100.00
7660;BME280;3872;47.902;8.162;2023-12-20T02:35:58;91878.31;;;6.56;100.00
7660;BME280;3872;47.902;8.162;2023-12-20T02:38:25;91872.13;;;6.37;100.00
7660;BME280;3872;47.902;8.162;2023-12-20T02:40:54;91873.69;;;6.38;100.00
7660;BME280;3872;47.902;8.162;2023-12-20T02:43:20;91882.09;;;6.20;100.00
7660;BME280;3872;47.902;8.162;2023-12-20T02:45:47;91876.09;;;6.19;100.00
7660;BME280;3872;47.902;8.162;2023-12-20T02:48:13;91882.09;;;6.30;100.00
7660;BME280;3872;47.902;8.162;2023-12-20T02:50:40;91881.44;;;5.59;100.00
7660;BME280;3872;47.902;8.162;2023-12-20T02:53:06;91879.28;;;5.86;100.00
7660;BME280;3872;47.902;8.162;2023-12-20T02:55:33;91875.94;;;5.50;100.00
7660;BME280;3872;47.902;8.162;2023-12-20T02:58:01;91879.84;;;5.68;100.00
7660;BME280;3872;47.902;8.162;2023-12-20T03:00:27;91881.31;;;6.24;100.00
7660;BME280;3872;47.902;8.162;2023-12-20T03:02:54;91877.47;;;6.02;100.00
7660;BME280;3872;47.902;8.162;2023-12-20T03:05:20;91877.88;;;6.39;100.00
7660;BME280;3872;47.902;8.162;2023-12-20T03:07:47;91875.66;;;6.61;100.00
7660;BME280;3872;47.902;8.162;2023-12-20T03:10:13;91871.81;;;6.49;100.00
7660;BME280;3872;47.902;8.162;2023-12-20T03:12:40;91884.44;;;6.32;100.00
7660;BME280;3872;47.902;8.162;2023-12-20T03:15:09;91878.53;;;5.75;100.00
7660;BME280;3872;47.902;8.162;2023-12-20T03:17:35;91880.31;;;6.75;100.00
7660;BME280;3872;47.902;8.162;2023-12-20T03:20:02;91883.22;;;6.04;100.00
7660;BME280;3872;47.902;8.162;2023-12-20T03:22:29;91893.41;;;5.95;100.00
7660;BME280;3872;47.902;8.162;2023-12-20T03:24:55;91899.81;;;6.33;100.00
7660;BME280;3872;47.902;8.162;2023-12-20T03:27:22;91896.78;;;6.11;100.00
7660;BME280;3872;47.902;8.162;2023-12-20T03:29:48;91895.16;;;6.20;100.00
7660;BME280;3872;47.902;8.162;2023-12-20T03:32:16;91894.72;;;5.72;100.00
7660;BME280;3872;47.902;8.162;2023-12-20T03:34:43;91895.78;;;5.51;100.00
7660;BME280;3872;47.902;8.162;2023-12-20T03:37:09;91901.00;;;5.66;100.00
7660;BME280;3872;47.902;8.162;2023-12-20T03:39:36;91905.63;;;6.15;100.00
7660;BME280;3872;47.902;8.162;2023-12-20T03:42:03;91915.34;;;5.79;100.00
7660;BME280;3872;47.902;8.162;2023-12-20T03:44:31;91910.66;;;5.66;100.00
7660;BME280;3872;47.902;8.162;2023-12-20T03:46:57;91921.59;;;5.02;100.00
7660;BME280;3872;47.902;8.162;2023-12-20T03:49:25;91919.50;;;5.09;100.00
7660;BME280;3872;47.902;8.162;2023-12-20T03:51:51;91913.25;;;5.71;100.00
7660;BME280;3872;47.902;8.162;2023-12-20T03:54:18;91914.59;;;5.88;100.00
7660;BME280;3872;47.902;8.162;2023-12-20T03:56:44;91914.78;;;6.17;100.00
7660;BME280;3872;47.902;8.162;2023-12-20T03:59:11;91916.34;;;6.13;100.00
7660;BME280;3872;47.902;8.162;2023-12-20T04:01:37;91914.84;;;5.51;100.00
7660;BME280;3872;47.902;8.162;2023-12-20T04:04:04;91913.00;;;5.87;100.00
7660;BME280;3872;47.902;8.162;2023-12-20T04:06:32;91917.44;;;5.36;100.00
7660;BME280;3872;47.902;8.162;2023-12-20T04:08:58;91917.19;;;5.63;100.00
7660;BME280;3872;47.902;8.162;2023-12-20T04:11:25;91932.34;;;4.38;100.00
7660;BME280;3872;47.902;8.162;2023-12-20T04:13:51;91934.22;;;4.53;100.00
7660;BME280;3872;47.902;8.162;2023-12-20T04:16:18;91933.59;;;5.84;100.00
7660;BME280;3872;47.902;8.162;2023-12-20T04:18:44;91931.28;;;5.37;100.00
7660;BME280;3872;47.902;8.162;2023-12-20T04:21:11;91931.22;;;4.96;100.00
7660;BME280;3872;47.902;8.162;2023-12-20T04:23:39;91928.94;;;5.56;100.00
7660;BME280;3872;47.902;8.162;2023-12-20T04:26:05;91929.72;;;5.61;100.00
7660;BME280;3872;47.902;8.162;2023-12-20T04:28:32;91927.13;;;5.97;100.00
7660;BME280;3872;47.902;8.162;2023-12-20T04:30:58;91933.38;;;5.50;100.00
7660;BME280;3872;47.902;8.162;2023-12-20T04:33:25;91935.97;;;5.80;100.00
7660;BME280;3872;47.902;8.162;2023-12-20T04:35:51;91929.19;;;6.00;100.00
7660;BME280;3872;47.902;8.162;2023-12-20T04:38:18;91942.50;;;5.58;100.00
7660;BME280;3872;47.902;8.162;2023-12-20T04:40:45;91938.84;;;5.74;100.00
7660;BME280;3872;47.902;8.162;2023-12-20T04:43:13;91943.28;;;6.09;100.00
7660;BME280;3872;47.902;8.162;2023-12-20T04:45:40;91938.25;;;6.27;100.00
7660;BME280;3872;47.902;8.162;2023-12-20T04:48:07;91942.19;;;6.30;100.00
7660;BME280;3872;47.902;8.162;2023-12-20T04:50:33;91949.97;;;6.50;100.00
7660;BME280;3872;47.902;8.162;2023-12-20T04:53:00;91951.75;;;6.65;100.00
7660;BME280;3872;47.902;8.162;2023-12-20T04:55:26;91953.88;;;6.53;100.00
7660;BME280;3872;47.902;8.162;2023-12-20T04:57:54;91951.56;;;6.36;100.00
7660;BME280;3872;47.902;8.162;2023-12-20T05:00:22;91954.44;;;6.40;100.00
7660;BME280;3872;47.902;8.162;2023-12-20T05:02:48;91960.50;;;6.15;100.00
7660;BME280;3872;47.902;8.162;2023-12-20T05:05:15;91961.56;;;6.09;100.00
7660;BME280;3872;47.902;8.162;2023-12-20T05:07:43;91947.19;;;6.16;100.00
7660;BME280;3872;47.902;8.162;2023-12-20T05:10:09;91949.03;;;5.90;100.00
7660;BME280;3872;47.902;8.162;2023-12-20T05:12:36;91950.84;;;6.05;100.00
7660;BME280;3872;47.902;8.162;2023-12-20T05:15:06;91958.69;;;5.49;100.00
7660;BME280;3872;47.902;8.162;2023-12-20T05:17:32;91957.13;;;6.09;100.00
7660;BME280;3872;47.902;8.162;2023-12-20T05:19:59;91960.19;;;6.37;100.00
7660;BME280;3872;47.902;8.162;2023-12-20T05:22:25;91965.47;;;6.11;100.00
7660;BME280;3872;47.902;8.162;2023-12-20T05:24:52;91965.75;;;6.10;100.00
7660;BME280;3872;47.902;8.162;2023-12-20T05:27:19;91961.72;;;6.53;100.00
7660;BME280;3872;47.902;8.162;2023-12-20T05:29:46;91962.44;;;6.68;100.00
7660;BME280;3872;47.902;8.162;2023-12-20T05:32:13;91962.44;;;6.68;100.00
7660;BME280;3872;47.902;8.162;2023-12-20T05:34:40;91968.84;;;6.32;100.00
7660;BME280;3872;47.902;8.162;2023-12-20T05:37:06;91967.84;;;5.67;100.00
7660;BME280;3872;47.902;8.162;2023-12-20T05:39:33;91973.84;;;5.53;100.00
7660;BME280;3872;47.902;8.162;2023-12-20T05:41:59;91967.84;;;5.47;100.00
7660;BME280;3872;47.902;8.162;2023-12-20T05:44:26;91964.88;;;6.40;100.00
7660;BME280;3872;47.902;8.162;2023-12-20T05:46:52;91967.44;;;6.55;100.00
7660;BME280;3872;47.902;8.162;2023-12-20T05:49:20;91976.72;;;6.07;100.00
7660;BME280;3872;47.902;8.162;2023-12-20T05:51:47;91982.41;;;6.44;100.00
7660;BME280;3872;47.902;8.162;2023-12-20T05:54:13;91980.03;;;6.48;100.00
7660;BME280;3872;47.902;8.162;2023-12-20T05:56:40;91980.84;;;6.33;100.00
7660;BME280;3872;47.902;8.162;2023-12-20T05:59:06;91976.97;;;6.15;100.00
7660;BME280;3872;47.902;8.162;2023-12-20T06:01:33;91983.22;;;6.29;100.00
7660;BME280;3872;47.902;8.162;2023-12-20T06:03:59;91979.78;;;6.44;100.00
7660;BME280;3872;47.902;8.162;2023-12-20T06:06:27;91979.50;;;6.51;100.00
7660;BME280;3872;47.902;8.162;2023-12-20T06:08:54;91982.22;;;6.10;100.00
7660;BME280;3872;47.902;8.162;2023-12-20T06:11:20;91987.59;;;6.59;100.00
7660;BME280;3872;47.902;8.162;2023-12-20T06:13:47;91987.88;;;6.53;100.00
7660;BME280;3872;47.902;8.162;2023-12-20T06:16:14;91992.88;;;6.39;100.00
7660;BME280;3872;47.902;8.162;2023-12-20T06:18:41;91998.09;;;6.34;100.00
7660;BME280;3872;47.902;8.162;2023-12-20T06:21:07;92006.16;;;6.48;100.00
7660;BME280;3872;47.902;8.162;2023-12-20T06:23:39;92008.53;;;6.44;100.00
7660;BME280;3872;47.902;8.162;2023-12-20T06:26:05;92010.38;;;6.39;100.00
7660;BME280;3872;47.902;8.162;2023-12-20T06:28:32;92011.09;;;6.75;100.00
7660;BME280;3872;47.902;8.162;2023-12-20T06:30:58;92012.41;;;6.62;100.00
7660;BME280;3872;47.902;8.162;2023-12-20T06:33:25;92016.56;;;6.73;100.00
7660;BME280;3872;47.902;8.162;2023-12-20T06:35:52;92024.69;;;6.61;100.00
7660;BME280;3872;47.902;8.162;2023-12-20T06:38:19;92022.06;;;6.61;100.00
7660;BME280;3872;47.902;8.162;2023-12-20T06:40:47;92026.00;;;6.54;100.00
7660;BME280;3872;47.902;8.162;2023-12-20T06:43:13;92023.69;;;6.42;100.00
7660;BME280;3872;47.902;8.162;2023-12-20T06:45:40;92025.97;;;6.69;100.00
7660;BME280;3872;47.902;8.162;2023-12-20T06:48:07;92020.78;;;6.64;100.00
7660;BME280;3872;47.902;8.162;2023-12-20T06:50:33;92023.00;;;7.01;100.00
7660;BME280;3872;47.902;8.162;2023-12-20T06:53:02;92036.63;;;6.93;100.00
7660;BME280;3872;47.902;8.162;2023-12-20T06:55:32;92039.28;;;6.83;100.00
7660;BME280;3872;47.902;8.162;2023-12-20T06:58:00;92029.88;;;6.82;100.00
7660;BME280;3872;47.902;8.162;2023-12-20T07:00:27;92038.84;;;5.79;100.00
7660;BME280;3872;47.902;8.162;2023-12-20T07:02:54;92041.09;;;6.82;100.00
7660;BME280;3872;47.902;8.162;2023-12-20T07:05:20;92038.94;;;7.04;100.00
7660;BME280;3872;47.902;8.162;2023-12-20T07:07:47;92047.66;;;6.80;100.00
7660;BME280;3872;47.902;8.162;2023-12-20T07:10:14;92038.19;;;6.99;100.00
7660;BME280;3872;47.902;8.162;2023-12-20T07:12:40;92047.50;;;6.20;100.00
7660;BME280;3872;47.902;8.162;2023-12-20T07:15:09;92051.38;;;5.67;100.00
7660;BME280;3872;47.902;8.162;2023-12-20T07:17:35;92051.13;;;5.84;100.00
7660;BME280;3872;47.902;8.162;2023-12-20T07:20:02;92050.88;;;6.36;100.00
7660;BME280;3872;47.902;8.162;2023-12-20T07:22:30;92070.53;;;5.10;100.00
7660;BME280;3872;47.902;8.162;2023-12-20T07:24:57;92071.84;;;5.08;100.00
7660;BME280;3872;47.902;8.162;2023-12-20T07:27:24;92070.59;;;5.26;100.00
7660;BME280;3872;47.902;8.162;2023-12-20T07:29:51;92076.66;;;5.51;100.00
7660;BME280;3872;47.902;8.162;2023-12-20T07:32:20;92074.69;;;5.11;100.00
7660;BME280;3872;47.902;8.162;2023-12-20T07:34:47;92072.00;;;5.79;100.00
7660;BME280;3872;47.902;8.162;2023-12-20T07:37:13;92082.38;;;5.43;100.00
7660;BME280;3872;47.902;8.162;2023-12-20T07:39:40;92082.00;;;6.02;100.00
7660;BME280;3872;47.902;8.162;2023-12-20T07:42:07;92086.41;;;6.47;100.00
7660;BME280;3872;47.902;8.162;2023-12-20T07:44:34;92102.97;;;5.35;100.00
7660;BME280;3872;47.902;8.162;2023-12-20T07:47:01;92079.38;;;6.38;100.00
7660;BME280;3872;47.902;8.162;2023-12-20T07:49:30;92090.00;;;5.60;100.00
7660;BME280;3872;47.902;8.162;2023-12-20T07:51:57;92080.31;;;5.45;100.00
7660;BME280;3872;47.902;8.162;2023-12-20T07:54:23;92092.03;;;5.48;100.00
7660;BME280;3872;47.902;8.162;2023-12-20T07:56:50;92101.84;;;5.88;100.00
7660;BME280;3872;47.902;8.162;2023-12-20T07:59:16;92095.81;;;5.93;100.00
7660;BME280;3872;47.902;8.162;2023-12-20T08:01:43;92098.91;;;5.84;100.00
7660;BME280;3872;47.902;8.162;2023-12-20T08:04:09;92095.31;;;6.06;100.00
7660;BME280;3872;47.902;8.162;2023-12-20T08:06:37;92112.84;;;5.23;100.00
7660;BME280;3872;47.902;8.162;2023-12-20T08:09:03;92114.03;;;4.95;100.00
7660;BME280;3872;47.902;8.162;2023-12-20T08:11:30;92098.22;;;5.17;100.00
7660;BME280;3872;47.902;8.162;2023-12-20T08:13:57;92101.84;;;5.98;100.00
7660;BME280;3872;47.902;8.162;2023-12-20T08:16:23;92104.78;;;5.24;100.00
7660;BME280;3872;47.902;8.162;2023-12-20T08:18:50;92102.47;;;5.33;100.00
7660;BME280;3872;47.902;8.162;2023-12-20T08:21:16;92102.22;;;5.44;100.00
7660;BME280;3872;47.902;8.162;2023-12-20T08:23:46;92106.97;;;5.58;100.00
7660;BME280;3872;47.902;8.162;2023-12-20T08:26:18;92107.56;;;5.07;100.00
7660;BME280;3872;47.902;8.162;2023-12-20T08:28:46;92102.28;;;4.97;100.00
7660;BME280;3872;47.902;8.162;2023-12-20T08:31:14;92106.06;;;5.22;100.00
7660;BME280;3872;47.902;8.162;2023-12-20T08:33:40;92120.19;;;4.42;100.00
7660;BME280;3872;47.902;8.162;2023-12-20T08:36:07;92110.06;;;4.82;100.00
7660;BME280;3872;47.902;8.162;2023-12-20T08:38:33;92112.63;;;5.34;100.00
7660;BME280;3872;47.902;8.162;2023-12-20T08:41:01;92113.00;;;4.96;100.00
7660;BME280;3872;47.902;8.162;2023-12-20T08:43:30;92111.88;;;5.39;100.00
7660;BME280;3872;47.902;8.162;2023-12-20T08:45:57;92108.38;;;6.01;100.00
7660;BME280;3872;47.902;8.162;2023-12-20T08:48:23;92111.25;;;6.14;100.00
7660;BME280;3872;47.902;8.162;2023-12-20T08:50:50;92108.28;;;5.70;100.00
7660;BME280;3872;47.902;8.162;2023-12-20T08:53:17;92115.44;;;5.18;100.00
7660;BME280;3872;47.902;8.162;2023-12-20T08:55:44;92111.03;;;5.23;100.00
7660;BME280;3872;47.902;8.162;2023-12-20T08:58:12;92121.56;;;5.54;100.00
7660;BME280;3872;47.902;8.162;2023-12-20T09:00:38;92127.28;;;4.46;100.00
7660;BME280;3872;47.902;8.162;2023-12-20T09:03:05;92112.91;;;5.38;100.00
7660;BME280;3872;47.902;8.162;2023-12-20T09:05:31;92116.06;;;5.45;100.00
7660;BME280;3872;47.902;8.162;2023-12-20T09:07:58;92111.19;;;5.84;100.00
7660;BME280;3872;47.902;8.162;2023-12-20T09:10:24;92118.69;;;4.93;100.00
7660;BME280;3872;47.902;8.162;2023-12-20T09:12:52;92115.34;;;5.70;100.00
7660;BME280;3872;47.902;8.162;2023-12-20T09:15:22;92124.88;;;5.34;100.00
7660;BME280;3872;47.902;8.162;2023-12-20T09:17:49;92119.16;;;5.32;100.00
7660;BME280;3872;47.902;8.162;2023-12-20T09:20:15;92120.16;;;6.23;100.00
7660;BME280;3872;47.902;8.162;2023-12-20T09:22:42;92125.94;;;5.33;100.00
7660;BME280;3872;47.902;8.162;2023-12-20T09:25:09;92130.63;;;5.36;100.00
7660;BME280;3872;47.902;8.162;2023-12-20T09:27:36;92133.25;;;5.41;100.00
7660;BME280;3872;47.902;8.162;2023-12-20T09:30:04;92141.25;;;5.19;100.00
7660;BME280;3872;47.902;8.162;2023-12-20T09:32:32;92146.38;;;5.56;100.00
7660;BME280;3872;47.902;8.162;2023-12-20T09:34:59;92149.63;;;5.88;100.00
7660;BME280;3872;47.902;8.162;2023-12-20T09:37:27;92158.56;;;5.40;100.00
7660;BME280;3872;47.902;8.162;2023-12-20T09:39:53;92166.56;;;4.77;100.00
7660;BME280;3872;47.902;8.162;2023-12-20T09:42:24;92162.97;;;5.30;100.00
7660;BME280;3872;47.902;8.162;2023-12-20T09:44:54;92170.63;;;5.46;100.00
7660;BME280;3872;47.902;8.162;2023-12-20T09:47:23;92168.25;;;5.45;100.00
7660;BME280;3872;47.902;8.162;2023-12-20T09:49:51;92169.69;;;5.16;100.00
7660;BME280;3872;47.902;8.162;2023-12-20T09:52:18;92167.53;;;5.02;100.00
7660;BME280;3872;47.902;8.162;2023-12-20T09:54:48;92172.06;;;3.84;100.00
7660;BME280;3872;47.902;8.162;2023-12-20T09:57:16;92160.31;;;4.72;100.00
7660;BME280;3872;47.902;8.162;2023-12-20T09:59:42;92150.72;;;4.83;100.00
7660;BME280;3872;47.902;8.162;2023-12-20T10:02:12;92143.75;;;4.57;100.00
7660;BME280;3872;47.902;8.162;2023-12-20T10:04:42;92142.25;;;4.61;100.00
7660;BME280;3872;47.902;8.162;2023-12-20T10:07:14;92140.69;;;5.12;100.00
7660;BME280;3872;47.902;8.162;2023-12-20T10:09:40;92139.91;;;5.74;100.00
7660;BME280;3872;47.902;8.162;2023-12-20T10:12:08;92144.56;;;4.57;100.00
7660;BME280;3872;47.902;8.162;2023-12-20T10:14:34;92127.81;;;4.90;100.00
7660;BME280;3872;47.902;8.162;2023-12-20T10:17:02;92119.94;;;5.32;100.00
7660;BME280;3872;47.902;8.162;2023-12-20T10:19:29;92134.03;;;4.84;100.00
7660;BME280;3872;47.902;8.162;2023-12-20T10:21:55;92119.03;;;5.06;100.00
7660;BME280;3872;47.902;8.162;2023-12-20T10:24:23;92122.34;;;4.50;100.00
7660;BME280;3872;47.902;8.162;2023-12-20T10:27:01;92122.94;;;4.62;100.00
7660;BME280;3872;47.902;8.162;2023-12-20T10:29:32;92118.28;;;4.69;100.00
7660;BME280;3872;47.902;8.162;2023-12-20T10:31:58;92118.38;;;4.84;100.00
7660;BME280;3872;47.902;8.162;2023-12-20T10:34:25;92121.88;;;5.00;100.00
7660;BME280;3872;47.902;8.162;2023-12-20T10:36:52;92132.84;;;4.60;100.00
7660;BME280;3872;47.902;8.162;2023-12-20T10:39:19;92119.25;;;5.67;100.00
7660;BME280;3872;47.902;8.162;2023-12-20T10:41:48;92115.81;;;5.46;100.00
7660;BME280;3872;47.902;8.162;2023-12-20T10:44:15;92111.03;;;5.23;100.00
7660;BME280;3872;47.902;8.162;2023-12-20T10:46:42;92109.44;;;5.22;100.00
7660;BME280;3872;47.902;8.162;2023-12-20T10:49:15;92106.16;;;5.52;100.00
7660;BME280;3872;47.902;8.162;2023-12-20T10:51:44;92107.31;;;4.62;100.00
7660;BME280;3872;47.902;8.162;2023-12-20T10:54:12;92112.28;;;4.26;100.00
7660;BME280;3872;47.902;8.162;2023-12-20T10:56:38;92099.56;;;5.34;100.00
7660;BME280;3872;47.902;8.162;2023-12-20T10:59:08;92095.16;;;4.78;100.00
7660;BME280;3872;47.902;8.162;2023-12-20T11:01:38;92101.03;;;4.21;100.00
7660;BME280;3872;47.902;8.162;2023-12-20T11:04:10;92093.72;;;4.55;100.00
7660;BME280;3872;47.902;8.162;2023-12-20T11:06:46;92096.88;;;4.62;100.00
7660;BME280;3872;47.902;8.162;2023-12-20T11:09:22;92097.91;;;4.19;100.00
7660;BME280;3872;47.902;8.162;2023-12-20T11:12:01;92104.41;;;4.16;100.00
7660;BME280;3872;47.902;8.162;2023-12-20T11:14:37;92104.94;;;5.07;100.00
7660;BME280;3872;47.902;8.162;2023-12-20T11:17:07;92112.38;;;4.05;100.00
7660;BME280;3872;47.902;8.162;2023-12-20T11:19:36;92099.09;;;5.47;100.00
7660;BME280;3872;47.902;8.162;2023-12-20T11:22:03;92109.88;;;4.52;100.00
7660;BME280;3872;47.902;8.162;2023-12-20T11:24:31;92106.78;;;3.91;100.00
7660;BME280;3872;47.902;8.162;2023-12-20T11:27:00;92111.38;;;4.11;100.00
7660;BME280;3872;47.902;8.162;2023-12-20T11:29:35;92114.84;;;4.21;100.00
7660;BME280;3872;47.902;8.162;2023-12-20T11:32:03;92094.28;;;5.14;100.00
7660;BME280;3872;47.902;8.162;2023-12-20T11:34:37;92106.50;;;4.56;100.00
7660;BME280;3872;47.902;8.162;2023-12-20T11:37:04;92111.31;;;3.74;100.00
7660;BME280;3872;47.902;8.162;2023-12-20T11:39:31;92111.31;;;3.74;100.00
7660;BME280;3872;47.902;8.162;2023-12-20T11:42:04;92116.53;;;4.06;100.00
7660;BME280;3872;47.902;8.162;2023-12-20T11:44:30;92119.09;;;3.69;100.00
7660;BME280;3872;47.902;8.162;2023-12-20T11:46:58;92124.47;;;3.89;100.00
7660;BME280;3872;47.902;8.162;2023-12-20T11:49:25;92103.78;;;4.04;100.00
7660;BME280;3872;47.902;8.162;2023-12-20T11:51:53;92107.38;;;3.44;100.00
7660;BME280;3872;47.902;8.162;2023-12-20T11:54:19;92107.38;;;3.71;100.00
7660;BME280;3872;47.902;8.162;2023-12-20T11:56:46;92101.47;;;3.76;100.00
7660;BME280;3872;47.902;8.162;2023-12-20T11:59:12;92090.84;;;4.56;100.00
7660;BME280;3872;47.902;8.162;2023-12-20T12:01:39;92103.00;;;3.23;100.00
7660;BME280;3872;47.902;8.162;2023-12-20T12:04:06;92096.72;;;3.73;100.00
7660;BME280;3872;47.902;8.162;2023-12-20T12:06:32;92093.84;;;4.01;100.00
7660;BME280;3872;47.902;8.162;2023-12-20T12:09:01;92100.41;;;4.04;100.00
7660;BME280;3872;47.902;8.162;2023-12-20T12:11:29;92102.97;;;3.72;100.00
7660;BME280;3872;47.902;8.162;2023-12-20T12:13:56;92094.03;;;4.63;100.00
7660;BME280;3872;47.902;8.162;2023-12-20T12:16:22;92099.22;;;4.21;100.00
7660;BME280;3872;47.902;8.162;2023-12-20T12:18:55;92098.44;;;3.89;100.00
7660;BME280;3872;47.902;8.162;2023-12-20T12:21:22;92097.69;;;4.25;100.00
7660;BME280;3872;47.902;8.162;2023-12-20T12:23:48;92081.22;;;4.20;100.00
7660;BME280;3872;47.902;8.162;2023-12-20T12:26:16;92092.59;;;3.50;100.00
7660;BME280;3872;47.902;8.162;2023-12-20T12:28:43;92100.44;;;4.09;100.00
7660;BME280;3872;47.902;8.162;2023-12-20T12:31:13;92098.09;;;3.80;100.00
7660;BME280;3872;47.902;8.162;2023-12-20T12:33:40;92095.72;;;3.74;100.00
7660;BME280;3872;47.902;8.162;2023-12-20T12:36:07;92091.44;;;4.26;100.00
7660;BME280;3872;47.902;8.162;2023-12-20T12:38:34;92088.78;;;3.58;100.00
7660;BME280;3872;47.902;8.162;2023-12-20T12:41:00;92093.09;;;4.06;100.00
7660;BME280;3872;47.902;8.162;2023-12-20T12:43:28;92089.63;;;4.27;100.00
7660;BME280;3872;47.902;8.162;2023-12-20T12:45:55;92106.69;;;3.81;100.00
7660;BME280;3872;47.902;8.162;2023-12-20T12:48:21;92106.38;;;4.41;100.00
7660;BME280;3872;47.902;8.162;2023-12-20T12:50:48;92102.97;;;4.36;100.00
7660;BME280;3872;47.902;8.162;2023-12-20T12:53:17;92110.84;;;3.06;100.00
7660;BME280;3872;47.902;8.162;2023-12-20T12:55:43;92113.06;;;3.95;100.00
7660;BME280;3872;47.902;8.162;2023-12-20T12:58:10;92119.25;;;4.53;100.00
7660;BME280;3872;47.902;8.162;2023-12-20T13:00:38;92116.84;;;4.09;100.00
7660;BME280;3872;47.902;8.162;2023-12-20T13:03:04;92115.34;;;4.55;100.00
7660;BME280;3872;47.902;8.162;2023-12-20T13:05:31;92121.50;;;3.75;100.00
7660;BME280;3872;47.902;8.162;2023-12-20T13:07:57;92108.56;;;3.32;100.00
7660;BME280;3872;47.902;8.162;2023-12-20T13:10:24;92113.97;;;3.79;100.00
7660;BME280;3872;47.902;8.162;2023-12-20T13:12:50;92099.44;;;3.56;100.00
7660;BME280;3872;47.902;8.162;2023-12-20T13:15:17;92108.41;;;4.34;100.00
7660;BME280;3872;47.902;8.162;2023-12-20T13:17:45;92097.09;;;4.55;100.00
7660;BME280;3872;47.902;8.162;2023-12-20T13:20:12;92100.66;;;4.39;100.00
7660;BME280;3872;47.902;8.162;2023-12-20T13:22:38;92100.56;;;4.29;100.00